Jamaica, VT

3:04 AM EDT on October 24, 2014 (GMT -0400)
Pinnacle Summit - Stratton Mountain | Change Station
CLOSE
Current Station
Personal Weather Station
Location: Stratton Mountain, VT
Elevation: 2290 ft
Nearby Weather Stations

Elev 2290 ft 43.13 °N, 72.87 °W | Updated 3 minutes ago

Rain
Rain
38.9 °F
Feels Like 35 °F
N
5.0
Wind Variable Wind from NW
Gusts 8.0 mph

Today
High -- | Low -- °F
--% Chance of Precip.
Yesterday
High -- | Low -- °F
Precip. -- in
7:15 AM 5:54 PM
New Moon, 0% visible
Pressure 29.77 in
Visibility 7.0 miles
Clouds Mostly Cloudy 1800 ft
Mostly Cloudy 2400 ft
Overcast 3900 ft
Windchill 35 °F
Dew Point 39 °F
Humidity 99%
Rainfall 0.02 in
Snow Depth Not available.
UV 0 out of 12
Pollen .10 out of 12
Air Quality Not available.
Flu Activity Sporadic
METAR KVSF 240554Z AUTO 27003KT 7SM -RA BKN018 BKN024 OVC039 08/07 A2976 RMK AO2 RAB17 SLP081 P0001 60007 T00830067 10094 20083 56008

More Conditions Fewer Conditions

Pressure 29.77 in
Visibility 7.0 miles
Clouds Mostly Cloudy 1800 ft
Mostly Cloudy 2400 ft
Overcast 3900 ft
Windchill 35 °F
Dew Point 39 °F
Humidity 99%
Rainfall 0.02 in
Snow Depth Not available.
UV 0 out of 12
Pollen .10 out of 12
Air Quality Not available.
Flu Activity Sporadic
METAR KVSF 240554Z AUTO 27003KT 7SM -RA BKN018 BKN024 OVC039 08/07 A2976 RMK AO2 RAB17 SLP081 P0001 60007 T00830067 10094 20083 56008

More Conditions Fewer Conditions

10-Day Weather Forecast

Almanac

Astronomy

Oct. 24, 2014 Rise Set
Actual Time 7:15 AM EDT 5:54 PM EDT
Civil Twilight 6:46 AM EDT 6:23 PM EDT
Nautical Twilight 6:13 AM EDT 6:56 PM EDT
Astronomical Twilight 5:40 AM EDT 7:29 PM EDT
Moon 7:52 AM EDT 6:31 PM EDT
Length of Visible Light 11h 36m
Length of Day
10h 38m
Tomorrow will be 2m 44s shorter.
New Moon, 0% of the Moon is Illuminated
Today
New Moon
Oct 30
First Quarter
Nov 6
Full
Nov 14
Last Quarter
Nov 22
New

Today's Extremes

State Highs State Lows

Community

WunderPhotos

Upload Photos

1,764,510 photos uploaded!

WunderBlogs® & News

Nearby

Air Quality

  Air Quality AQ Index Pollutant
Yesterday Good
OZONE
Friday Good
PM2.5

Snow Depth

Station Depth Elevation
No new snow has been reported.

Earthquake Activity

City Distance Mag. Time & Date
No recent earthquake activity has been reported nearby.
Minimum magnitude displayed is 2.5.

Coastal Water Temperatures

Place Temperature
No Stations Reporting

Nearby Weather Stations